sensor_id;sensor_type;location;lat;lon;timestamp;P1;durP1;ratioP1;P2;durP2;ratioP2
73841;SDS011;62184;52.006;5.924;2022-09-09T00:00:14;6.22;;;3.08;;
73841;SDS011;62184;52.006;5.924;2022-09-09T00:02:44;6.75;;;3.45;;
73841;SDS011;62184;52.006;5.924;2022-09-09T00:05:23;7.78;;;3.90;;
73841;SDS011;62184;52.006;5.924;2022-09-09T00:07:58;7.05;;;3.58;;
73841;SDS011;62184;52.006;5.924;2022-09-09T00:10:32;7.97;;;4.13;;
73841;SDS011;62184;52.006;5.924;2022-09-09T00:13:06;6.53;;;3.50;;
73841;SDS011;62184;52.006;5.924;2022-09-09T00:15:48;6.30;;;3.72;;
73841;SDS011;62184;52.006;5.924;2022-09-09T00:18:24;7.78;;;3.75;;
73841;SDS011;62184;52.006;5.924;2022-09-09T00:20:58;6.30;;;3.70;;
73841;SDS011;62184;52.006;5.924;2022-09-09T00:23:32;7.45;;;3.83;;
73841;SDS011;62184;52.006;5.924;2022-09-09T00:26:08;8.38;;;4.10;;
73841;SDS011;62184;52.006;5.924;2022-09-09T00:28:45;7.07;;;3.40;;
73841;SDS011;62184;52.006;5.924;2022-09-09T00:31:23;7.32;;;3.75;;
73841;SDS011;62184;52.006;5.924;2022-09-09T00:33:55;7.78;;;3.90;;
73841;SDS011;62184;52.006;5.924;2022-09-09T00:36:35;8.43;;;3.65;;
73841;SDS011;62184;52.006;5.924;2022-09-09T00:39:03;8.13;;;3.50;;
73841;SDS011;62184;52.006;5.924;2022-09-09T00:41:40;7.70;;;4.18;;
73841;SDS011;62184;52.006;5.924;2022-09-09T00:44:27;7.95;;;3.80;;
73841;SDS011;62184;52.006;5.924;2022-09-09T00:47:09;7.35;;;3.70;;
73841;SDS011;62184;52.006;5.924;2022-09-09T00:49:54;7.22;;;3.83;;
73841;SDS011;62184;52.006;5.924;2022-09-09T00:52:36;6.55;;;3.88;;
73841;SDS011;62184;52.006;5.924;2022-09-09T00:55:15;7.20;;;3.75;;
73841;SDS011;62184;52.006;5.924;2022-09-09T00:57:54;7.03;;;3.45;;
73841;SDS011;62184;52.006;5.924;2022-09-09T01:00:22;8.00;;;3.78;;
73841;SDS011;62184;52.006;5.924;2022-09-09T01:02:53;8.13;;;4.63;;
73841;SDS011;62184;52.006;5.924;2022-09-09T01:05:35;8.85;;;4.05;;
73841;SDS011;62184;52.006;5.924;2022-09-09T01:08:18;9.10;;;4.05;;
73841;SDS011;62184;52.006;5.924;2022-09-09T01:11:05;7.85;;;3.50;;
73841;SDS011;62184;52.006;5.924;2022-09-09T01:13:44;7.88;;;3.42;;
73841;SDS011;62184;52.006;5.924;2022-09-09T01:16:19;10.82;;;3.65;;
73841;SDS011;62184;52.006;5.924;2022-09-09T01:18:46;8.10;;;3.67;;
73841;SDS011;62184;52.006;5.924;2022-09-09T01:21:20;8.98;;;4.43;;
73841;SDS011;62184;52.006;5.924;2022-09-09T01:24:11;6.45;;;3.55;;
73841;SDS011;62184;52.006;5.924;2022-09-09T01:26:53;6.70;;;4.22;;
73841;SDS011;62184;52.006;5.924;2022-09-09T01:29:26;7.53;;;3.10;;
73841;SDS011;62184;52.006;5.924;2022-09-09T01:31:54;8.80;;;3.63;;
73841;SDS011;62184;52.006;5.924;2022-09-09T01:34:24;7.38;;;3.55;;
73841;SDS011;62184;52.006;5.924;2022-09-09T01:36:57;7.90;;;3.60;;
73841;SDS011;62184;52.006;5.924;2022-09-09T01:39:29;8.13;;;3.47;;
73841;SDS011;62184;52.006;5.924;2022-09-09T01:41:58;6.68;;;3.50;;
73841;SDS011;62184;52.006;5.924;2022-09-09T01:44:25;7.22;;;3.85;;
73841;SDS011;62184;52.006;5.924;2022-09-09T01:46:55;6.60;;;3.22;;
73841;SDS011;62184;52.006;5.924;2022-09-09T01:49:22;9.23;;;3.25;;
73841;SDS011;62184;52.006;5.924;2022-09-09T01:51:49;7.30;;;3.43;;
73841;SDS011;62184;52.006;5.924;2022-09-09T01:54:19;7.50;;;3.72;;
73841;SDS011;62184;52.006;5.924;2022-09-09T01:56:53;6.00;;;2.88;;
73841;SDS011;62184;52.006;5.924;2022-09-09T01:59:41;5.93;;;3.65;;
73841;SDS011;62184;52.006;5.924;2022-09-09T02:02:24;6.00;;;2.72;;
73841;SDS011;62184;52.006;5.924;2022-09-09T02:05:00;8.02;;;3.58;;
73841;SDS011;62184;52.006;5.924;2022-09-09T02:07:40;7.82;;;3.45;;
73841;SDS011;62184;52.006;5.924;2022-09-09T02:10:14;7.10;;;3.20;;
73841;SDS011;62184;52.006;5.924;2022-09-09T02:12:49;5.80;;;3.25;;
73841;SDS011;62184;52.006;5.924;2022-09-09T02:15:27;5.65;;;2.90;;
73841;SDS011;62184;52.006;5.924;2022-09-09T02:18:00;7.32;;;3.95;;
73841;SDS011;62184;52.006;5.924;2022-09-09T02:20:34;6.93;;;3.10;;
73841;SDS011;62184;52.006;5.924;2022-09-09T02:23:04;7.07;;;3.42;;
73841;SDS011;62184;52.006;5.924;2022-09-09T02:25:34;8.10;;;3.42;;
73841;SDS011;62184;52.006;5.924;2022-09-09T02:28:06;7.53;;;3.28;;
73841;SDS011;62184;52.006;5.924;2022-09-09T02:30:36;6.25;;;3.20;;
73841;SDS011;62184;52.006;5.924;2022-09-09T02:33:06;7.13;;;3.22;;
73841;SDS011;62184;52.006;5.924;2022-09-09T02:35:35;5.97;;;2.97;;
73841;SDS011;62184;52.006;5.924;2022-09-09T02:38:06;7.72;;;3.65;;
73841;SDS011;62184;52.006;5.924;2022-09-09T02:40:38;7.13;;;3.00;;
73841;SDS011;62184;52.006;5.924;2022-09-09T02:43:07;6.32;;;3.30;;
73841;SDS011;62184;52.006;5.924;2022-09-09T02:45:35;7.45;;;2.85;;
73841;SDS011;62184;52.006;5.924;2022-09-09T02:48:14;6.45;;;3.35;;
73841;SDS011;62184;52.006;5.924;2022-09-09T02:50:53;7.38;;;3.05;;
73841;SDS011;62184;52.006;5.924;2022-09-09T02:53:30;6.15;;;3.10;;
73841;SDS011;62184;52.006;5.924;2022-09-09T02:56:09;6.97;;;3.13;;
73841;SDS011;62184;52.006;5.924;2022-09-09T02:58:44;7.03;;;3.03;;
73841;SDS011;62184;52.006;5.924;2022-09-09T03:01:11;6.50;;;3.40;;
73841;SDS011;62184;52.006;5.924;2022-09-09T03:03:38;7.22;;;3.40;;
73841;SDS011;62184;52.006;5.924;2022-09-09T03:06:04;6.70;;;2.97;;
73841;SDS011;62184;52.006;5.924;2022-09-09T03:08:31;6.65;;;2.67;;
73841;SDS011;62184;52.006;5.924;2022-09-09T03:10:58;6.00;;;3.03;;
73841;SDS011;62184;52.006;5.924;2022-09-09T03:13:25;6.43;;;2.90;;
73841;SDS011;62184;52.006;5.924;2022-09-09T03:15:54;6.40;;;3.83;;
73841;SDS011;62184;52.006;5.924;2022-09-09T03:18:21;7.30;;;3.60;;
73841;SDS011;62184;52.006;5.924;2022-09-09T03:20:47;8.32;;;4.07;;
73841;SDS011;62184;52.006;5.924;2022-09-09T03:23:14;7.22;;;3.13;;
73841;SDS011;62184;52.006;5.924;2022-09-09T03:25:45;7.07;;;3.38;;
73841;SDS011;62184;52.006;5.924;2022-09-09T03:28:12;7.05;;;3.40;;
73841;SDS011;62184;52.006;5.924;2022-09-09T03:30:39;6.53;;;3.80;;
73841;SDS011;62184;52.006;5.924;2022-09-09T03:33:08;8.10;;;5.07;;
73841;SDS011;62184;52.006;5.924;2022-09-09T03:35:34;9.50;;;5.47;;
73841;SDS011;62184;52.006;5.924;2022-09-09T03:38:01;9.30;;;4.57;;
73841;SDS011;62184;52.006;5.924;2022-09-09T03:40:27;8.55;;;5.13;;
73841;SDS011;62184;52.006;5.924;2022-09-09T03:42:53;11.63;;;5.20;;
73841;SDS011;62184;52.006;5.924;2022-09-09T03:45:20;9.20;;;4.43;;
73841;SDS011;62184;52.006;5.924;2022-09-09T03:47:46;11.45;;;4.80;;
73841;SDS011;62184;52.006;5.924;2022-09-09T03:50:15;11.27;;;5.18;;
73841;SDS011;62184;52.006;5.924;2022-09-09T03:52:42;10.15;;;4.28;;
73841;SDS011;62184;52.006;5.924;2022-09-09T03:55:08;9.52;;;4.47;;
73841;SDS011;62184;52.006;5.924;2022-09-09T03:57:35;9.75;;;4.45;;
73841;SDS011;62184;52.006;5.924;2022-09-09T04:00:02;10.82;;;5.20;;
73841;SDS011;62184;52.006;5.924;2022-09-09T04:02:30;8.52;;;4.78;;
73841;SDS011;62184;52.006;5.924;2022-09-09T04:04:56;7.63;;;4.25;;
73841;SDS011;62184;52.006;5.924;2022-09-09T04:07:25;9.20;;;4.10;;
73841;SDS011;62184;52.006;5.924;2022-09-09T04:09:52;9.63;;;4.43;;
73841;SDS011;62184;52.006;5.924;2022-09-09T04:12:18;8.63;;;4.05;;
73841;SDS011;62184;52.006;5.924;2022-09-09T04:14:45;8.70;;;4.20;;
73841;SDS011;62184;52.006;5.924;2022-09-09T04:17:11;10.32;;;4.82;;
73841;SDS011;62184;52.006;5.924;2022-09-09T04:19:37;9.15;;;4.28;;
73841;SDS011;62184;52.006;5.924;2022-09-09T04:22:04;10.35;;;4.60;;
73841;SDS011;62184;52.006;5.924;2022-09-09T04:24:32;8.93;;;4.38;;
73841;SDS011;62184;52.006;5.924;2022-09-09T04:26:59;8.80;;;4.43;;
73841;SDS011;62184;52.006;5.924;2022-09-09T04:29:25;10.52;;;4.25;;
73841;SDS011;62184;52.006;5.924;2022-09-09T04:31:52;8.45;;;3.90;;
73841;SDS011;62184;52.006;5.924;2022-09-09T04:34:18;8.77;;;4.13;;
73841;SDS011;62184;52.006;5.924;2022-09-09T04:36:44;8.63;;;3.70;;
73841;SDS011;62184;52.006;5.924;2022-09-09T04:39:11;9.05;;;4.35;;
73841;SDS011;62184;52.006;5.924;2022-09-09T04:41:39;7.47;;;4.10;;
73841;SDS011;62184;52.006;5.924;2022-09-09T04:44:06;9.05;;;3.92;;
73841;SDS011;62184;52.006;5.924;2022-09-09T04:46:32;9.68;;;4.93;;
73841;SDS011;62184;52.006;5.924;2022-09-09T04:48:59;9.25;;;3.67;;
73841;SDS011;62184;52.006;5.924;2022-09-09T04:51:25;10.77;;;4.40;;
73841;SDS011;62184;52.006;5.924;2022-09-09T04:53:51;11.23;;;4.45;;
73841;SDS011;62184;52.006;5.924;2022-09-09T04:56:18;9.15;;;4.32;;
73841;SDS011;62184;52.006;5.924;2022-09-09T04:58:48;8.70;;;4.22;;
73841;SDS011;62184;52.006;5.924;2022-09-09T05:01:15;10.40;;;4.05;;
73841;SDS011;62184;52.006;5.924;2022-09-09T05:03:44;8.82;;;4.13;;
73841;SDS011;62184;52.006;5.924;2022-09-09T05:06:12;9.27;;;3.78;;
73841;SDS011;62184;52.006;5.924;2022-09-09T05:08:41;10.98;;;3.67;;
73841;SDS011;62184;52.006;5.924;2022-09-09T05:11:16;10.23;;;3.50;;
73841;SDS011;62184;52.006;5.924;2022-09-09T05:13:48;7.78;;;3.60;;
73841;SDS011;62184;52.006;5.924;2022-09-09T05:16:14;8.30;;;4.30;;
73841;SDS011;62184;52.006;5.924;2022-09-09T05:18:42;9.75;;;3.80;;
73841;SDS011;62184;52.006;5.924;2022-09-09T05:21:09;7.63;;;3.65;;
73841;SDS011;62184;52.006;5.924;2022-09-09T05:23:36;10.68;;;3.88;;
73841;SDS011;62184;52.006;5.924;2022-09-09T05:26:04;8.77;;;4.03;;
73841;SDS011;62184;52.006;5.924;2022-09-09T05:28:33;10.95;;;3.90;;
73841;SDS011;62184;52.006;5.924;2022-09-09T05:31:03;9.73;;;4.15;;
73841;SDS011;62184;52.006;5.924;2022-09-09T05:33:32;12.23;;;3.97;;
73841;SDS011;62184;52.006;5.924;2022-09-09T05:36:00;6.78;;;3.42;;
73841;SDS011;62184;52.006;5.924;2022-09-09T05:38:29;10.60;;;3.90;;
73841;SDS011;62184;52.006;5.924;2022-09-09T05:40:57;9.32;;;3.00;;
73841;SDS011;62184;52.006;5.924;2022-09-09T05:43:25;8.80;;;3.78;;
73841;SDS011;62184;52.006;5.924;2022-09-09T05:45:58;8.27;;;3.17;;
73841;SDS011;62184;52.006;5.924;2022-09-09T05:48:29;10.00;;;3.83;;
73841;SDS011;62184;52.006;5.924;2022-09-09T05:50:57;7.88;;;3.78;;
73841;SDS011;62184;52.006;5.924;2022-09-09T05:53:24;10.75;;;3.47;;
73841;SDS011;62184;52.006;5.924;2022-09-09T05:55:57;9.45;;;3.65;;
73841;SDS011;62184;52.006;5.924;2022-09-09T05:58:25;8.05;;;3.08;;
73841;SDS011;62184;52.006;5.924;2022-09-09T06:00:51;10.57;;;3.58;;
73841;SDS011;62184;52.006;5.924;2022-09-09T06:03:21;9.88;;;4.07;;
73841;SDS011;62184;52.006;5.924;2022-09-09T06:05:47;9.90;;;3.75;;
73841;SDS011;62184;52.006;5.924;2022-09-09T06:08:23;8.85;;;4.63;;
73841;SDS011;62184;52.006;5.924;2022-09-09T06:10:50;9.75;;;3.80;;
73841;SDS011;62184;52.006;5.924;2022-09-09T06:13:16;10.20;;;3.60;;
73841;SDS011;62184;52.006;5.924;2022-09-09T06:15:48;12.18;;;4.00;;
73841;SDS011;62184;52.006;5.924;2022-09-09T06:18:15;8.85;;;3.47;;
73841;SDS011;62184;52.006;5.924;2022-09-09T06:20:52;9.52;;;4.18;;
73841;SDS011;62184;52.006;5.924;2022-09-09T06:23:20;9.05;;;3.65;;
73841;SDS011;62184;52.006;5.924;2022-09-09T06:25:46;9.82;;;3.90;;
73841;SDS011;62184;52.006;5.924;2022-09-09T06:28:13;11.02;;;4.28;;
73841;SDS011;62184;52.006;5.924;2022-09-09T06:30:39;8.10;;;3.17;;
73841;SDS011;62184;52.006;5.924;2022-09-09T06:33:05;9.55;;;3.70;;
73841;SDS011;62184;52.006;5.924;2022-09-09T06:35:32;8.75;;;3.80;;
73841;SDS011;62184;52.006;5.924;2022-09-09T06:38:01;8.93;;;4.00;;
73841;SDS011;62184;52.006;5.924;2022-09-09T06:40:27;11.80;;;3.85;;
73841;SDS011;62184;52.006;5.924;2022-09-09T06:42:53;8.77;;;3.42;;
73841;SDS011;62184;52.006;5.924;2022-09-09T06:45:20;8.45;;;2.90;;
73841;SDS011;62184;52.006;5.924;2022-09-09T06:47:46;9.40;;;3.10;;
73841;SDS011;62184;52.006;5.924;2022-09-09T06:50:13;9.07;;;3.50;;
73841;SDS011;62184;52.006;5.924;2022-09-09T06:52:39;10.43;;;3.40;;
73841;SDS011;62184;52.006;5.924;2022-09-09T06:55:08;9.20;;;3.25;;
73841;SDS011;62184;52.006;5.924;2022-09-09T06:57:35;7.82;;;3.53;;
73841;SDS011;62184;52.006;5.924;2022-09-09T07:00:01;9.00;;;3.25;;
73841;SDS011;62184;52.006;5.924;2022-09-09T07:02:31;8.70;;;3.00;;
73841;SDS011;62184;52.006;5.924;2022-09-09T07:04:57;11.50;;;3.78;;
73841;SDS011;62184;52.006;5.924;2022-09-09T07:07:24;9.13;;;2.72;;
73841;SDS011;62184;52.006;5.924;2022-09-09T07:09:50;7.43;;;3.53;;
73841;SDS011;62184;52.006;5.924;2022-09-09T07:12:19;12.75;;;3.70;;
73841;SDS011;62184;52.006;5.924;2022-09-09T07:14:45;8.27;;;3.42;;
73841;SDS011;62184;52.006;5.924;2022-09-09T07:17:11;12.20;;;4.13;;
73841;SDS011;62184;52.006;5.924;2022-09-09T07:19:38;11.13;;;3.58;;
73841;SDS011;62184;52.006;5.924;2022-09-09T07:22:04;10.77;;;3.30;;
73841;SDS011;62184;52.006;5.924;2022-09-09T07:24:30;10.32;;;3.13;;
73841;SDS011;62184;52.006;5.924;2022-09-09T07:26:57;11.00;;;3.95;;
73841;SDS011;62184;52.006;5.924;2022-09-09T07:29:26;10.88;;;3.15;;
73841;SDS011;62184;52.006;5.924;2022-09-09T07:31:52;8.75;;;3.88;;
73841;SDS011;62184;52.006;5.924;2022-09-09T07:34:18;8.93;;;3.25;;
73841;SDS011;62184;52.006;5.924;2022-09-09T07:36:45;12.07;;;3.55;;
73841;SDS011;62184;52.006;5.924;2022-09-09T07:39:12;9.45;;;3.60;;
73841;SDS011;62184;52.006;5.924;2022-09-09T07:41:41;8.95;;;3.33;;
73841;SDS011;62184;52.006;5.924;2022-09-09T07:44:10;10.70;;;3.50;;
73841;SDS011;62184;52.006;5.924;2022-09-09T07:46:42;8.43;;;3.33;;
73841;SDS011;62184;52.006;5.924;2022-09-09T07:49:10;10.55;;;3.75;;
73841;SDS011;62184;52.006;5.924;2022-09-09T07:51:37;8.82;;;4.10;;
73841;SDS011;62184;52.006;5.924;2022-09-09T07:54:07;10.43;;;4.10;;
73841;SDS011;62184;52.006;5.924;2022-09-09T07:56:36;11.25;;;4.07;;
73841;SDS011;62184;52.006;5.924;2022-09-09T07:59:03;9.85;;;3.38;;
73841;SDS011;62184;52.006;5.924;2022-09-09T08:01:31;10.52;;;3.78;;
73841;SDS011;62184;52.006;5.924;2022-09-09T08:04:03;11.75;;;3.42;;
73841;SDS011;62184;52.006;5.924;2022-09-09T08:06:33;9.55;;;3.63;;
73841;SDS011;62184;52.006;5.924;2022-09-09T08:09:04;10.45;;;3.42;;
73841;SDS011;62184;52.006;5.924;2022-09-09T08:11:33;7.50;;;3.40;;
73841;SDS011;62184;52.006;5.924;2022-09-09T08:13:59;10.75;;;3.50;;
73841;SDS011;62184;52.006;5.924;2022-09-09T08:16:27;8.75;;;3.72;;
73841;SDS011;62184;52.006;5.924;2022-09-09T08:18:56;11.77;;;3.67;;
73841;SDS011;62184;52.006;5.924;2022-09-09T08:21:27;9.52;;;3.20;;
73841;SDS011;62184;52.006;5.924;2022-09-09T08:23:56;6.80;;;2.88;;
73841;SDS011;62184;52.006;5.924;2022-09-09T08:26:25;10.07;;;3.35;;
73841;SDS011;62184;52.006;5.924;2022-09-09T08:28:54;12.60;;;3.35;;
73841;SDS011;62184;52.006;5.924;2022-09-09T08:31:23;10.88;;;3.60;;
73841;SDS011;62184;52.006;5.924;2022-09-09T08:33:53;12.13;;;2.85;;
73841;SDS011;62184;52.006;5.924;2022-09-09T08:36:21;11.20;;;4.28;;
73841;SDS011;62184;52.006;5.924;2022-09-09T08:38:52;7.93;;;2.90;;
73841;SDS011;62184;52.006;5.924;2022-09-09T08:44:37;7.90;;;3.33;;
73841;SDS011;62184;52.006;5.924;2022-09-09T08:47:23;10.80;;;3.05;;
73841;SDS011;62184;52.006;5.924;2022-09-09T08:50:08;10.15;;;3.20;;
73841;SDS011;62184;52.006;5.924;2022-09-09T08:52:50;9.63;;;2.75;;
73841;SDS011;62184;52.006;5.924;2022-09-09T08:55:28;6.85;;;2.30;;
73841;SDS011;62184;52.006;5.924;2022-09-09T08:58:09;8.30;;;2.55;;
73841;SDS011;62184;52.006;5.924;2022-09-09T09:03:52;8.70;;;2.78;;
73841;SDS011;62184;52.006;5.924;2022-09-09T09:06:48;8.82;;;3.35;;
73841;SDS011;62184;52.006;5.924;2022-09-09T09:09:33;8.40;;;2.60;;
73841;SDS011;62184;52.006;5.924;2022-09-09T09:12:16;8.50;;;3.00;;
73841;SDS011;62184;52.006;5.924;2022-09-09T09:14:47;6.03;;;2.33;;
73841;SDS011;62184;52.006;5.924;2022-09-09T09:17:15;8.63;;;2.70;;
73841;SDS011;62184;52.006;5.924;2022-09-09T09:19:45;7.28;;;2.83;;
73841;SDS011;62184;52.006;5.924;2022-09-09T09:22:16;5.90;;;2.33;;
73841;SDS011;62184;52.006;5.924;2022-09-09T09:24:48;6.70;;;2.47;;
73841;SDS011;62184;52.006;5.924;2022-09-09T09:27:25;7.85;;;2.90;;
73841;SDS011;62184;52.006;5.924;2022-09-09T09:29:59;8.32;;;3.05;;
73841;SDS011;62184;52.006;5.924;2022-09-09T09:32:33;8.93;;;2.45;;
73841;SDS011;62184;52.006;5.924;2022-09-09T09:35:02;9.15;;;3.00;;
73841;SDS011;62184;52.006;5.924;2022-09-09T09:37:37;8.10;;;3.13;;
73841;SDS011;62184;52.006;5.924;2022-09-09T09:40:10;8.57;;;2.67;;
73841;SDS011;62184;52.006;5.924;2022-09-09T09:42:47;5.13;;;2.67;;
73841;SDS011;62184;52.006;5.924;2022-09-09T09:45:18;6.43;;;2.55;;
73841;SDS011;62184;52.006;5.924;2022-09-09T09:47:57;7.95;;;2.45;;
73841;SDS011;62184;52.006;5.924;2022-09-09T09:50:25;6.53;;;2.53;;
73841;SDS011;62184;52.006;5.924;2022-09-09T09:52:55;6.32;;;2.60;;
73841;SDS011;62184;52.006;5.924;2022-09-09T09:55:23;6.47;;;2.78;;
73841;SDS011;62184;52.006;5.924;2022-09-09T09:57:54;9.18;;;2.92;;
73841;SDS011;62184;52.006;5.924;2022-09-09T10:00:28;9.02;;;2.58;;
73841;SDS011;62184;52.006;5.924;2022-09-09T10:02:55;8.27;;;2.20;;
73841;SDS011;62184;52.006;5.924;2022-09-09T10:05:22;6.97;;;2.05;;
73841;SDS011;62184;52.006;5.924;2022-09-09T10:10:45;6.68;;;2.22;;
73841;SDS011;62184;52.006;5.924;2022-09-09T10:13:34;6.95;;;2.53;;
73841;SDS011;62184;52.006;5.924;2022-09-09T10:16:19;7.70;;;2.42;;
73841;SDS011;62184;52.006;5.924;2022-09-09T10:19:03;7.90;;;2.45;;
73841;SDS011;62184;52.006;5.924;2022-09-09T10:21:42;6.10;;;2.72;;
73841;SDS011;62184;52.006;5.924;2022-09-09T10:24:26;6.72;;;2.83;;
73841;SDS011;62184;52.006;5.924;2022-09-09T10:27:32;7.53;;;2.38;;
73841;SDS011;62184;52.006;5.924;2022-09-09T10:30:13;6.90;;;2.55;;
73841;SDS011;62184;52.006;5.924;2022-09-09T10:32:48;8.18;;;2.65;;
73841;SDS011;62184;52.006;5.924;2022-09-09T10:35:21;7.13;;;2.45;;
73841;SDS011;62184;52.006;5.924;2022-09-09T10:38:02;8.98;;;2.63;;
73841;SDS011;62184;52.006;5.924;2022-09-09T10:40:42;7.03;;;2.80;;
73841;SDS011;62184;52.006;5.924;2022-09-09T10:43:30;5.05;;;1.90;;
73841;SDS011;62184;52.006;5.924;2022-09-09T10:46:29;6.10;;;2.55;;
73841;SDS011;62184;52.006;5.924;2022-09-09T10:49:16;6.30;;;2.30;;
73841;SDS011;62184;52.006;5.924;2022-09-09T10:51:57;7.05;;;2.00;;
73841;SDS011;62184;52.006;5.924;2022-09-09T10:54:43;10.98;;;2.47;;
73841;SDS011;62184;52.006;5.924;2022-09-09T10:57:25;7.38;;;2.42;;
73841;SDS011;62184;52.006;5.924;2022-09-09T10:59:58;8.73;;;3.33;;
73841;SDS011;62184;52.006;5.924;2022-09-09T11:02:33;9.30;;;2.35;;
73841;SDS011;62184;52.006;5.924;2022-09-09T11:05:02;9.57;;;2.67;;
73841;SDS011;62184;52.006;5.924;2022-09-09T11:07:37;7.40;;;2.88;;
73841;SDS011;62184;52.006;5.924;2022-09-09T11:10:13;6.88;;;2.10;;
73841;SDS011;62184;52.006;5.924;2022-09-09T11:12:49;6.75;;;2.60;;
73841;SDS011;62184;52.006;5.924;2022-09-09T11:15:23;8.02;;;2.17;;
73841;SDS011;62184;52.006;5.924;2022-09-09T11:18:11;6.95;;;2.90;;
73841;SDS011;62184;52.006;5.924;2022-09-09T11:20:44;8.27;;;3.47;;
73841;SDS011;62184;52.006;5.924;2022-09-09T11:23:15;7.22;;;3.33;;
73841;SDS011;62184;52.006;5.924;2022-09-09T11:25:50;6.82;;;3.15;;
73841;SDS011;62184;52.006;5.924;2022-09-09T11:28:28;6.50;;;3.20;;
73841;SDS011;62184;52.006;5.924;2022-09-09T11:31:21;8.57;;;3.03;;
73841;SDS011;62184;52.006;5.924;2022-09-09T11:34:19;7.93;;;3.53;;
73841;SDS011;62184;52.006;5.924;2022-09-09T11:37:08;6.63;;;2.90;;
73841;SDS011;62184;52.006;5.924;2022-09-09T11:40:02;8.85;;;3.13;;
73841;SDS011;62184;52.006;5.924;2022-09-09T11:42:44;10.02;;;3.80;;
73841;SDS011;62184;52.006;5.924;2022-09-09T11:45:19;8.60;;;2.70;;
73841;SDS011;62184;52.006;5.924;2022-09-09T11:47:53;5.82;;;3.22;;
73841;SDS011;62184;52.006;5.924;2022-09-09T11:50:34;9.93;;;2.58;;
73841;SDS011;62184;52.006;5.924;2022-09-09T11:53:04;7.38;;;3.50;;
73841;SDS011;62184;52.006;5.924;2022-09-09T11:55:44;7.03;;;2.25;;
73841;SDS011;62184;52.006;5.924;2022-09-09T11:58:15;7.88;;;2.60;;
73841;SDS011;62184;52.006;5.924;2022-09-09T12:00:44;6.40;;;2.33;;
73841;SDS011;62184;52.006;5.924;2022-09-09T12:06:14;6.47;;;2.80;;
73841;SDS011;62184;52.006;5.924;2022-09-09T12:08:46;6.82;;;2.40;;
73841;SDS011;62184;52.006;5.924;2022-09-09T12:11:26;9.80;;;2.30;;
73841;SDS011;62184;52.006;5.924;2022-09-09T12:13:54;6.38;;;1.95;;
73841;SDS011;62184;52.006;5.924;2022-09-09T12:16:28;4.97;;;1.95;;
73841;SDS011;62184;52.006;5.924;2022-09-09T12:19:05;5.72;;;2.22;;
73841;SDS011;62184;52.006;5.924;2022-09-09T12:21:44;5.55;;;1.85;;
73841;SDS011;62184;52.006;5.924;2022-09-09T12:24:23;5.95;;;2.13;;
73841;SDS011;62184;52.006;5.924;2022-09-09T12:27:02;5.90;;;1.88;;
73841;SDS011;62184;52.006;5.924;2022-09-09T12:29:43;5.97;;;1.70;;
73841;SDS011;62184;52.006;5.924;2022-09-09T12:32:22;7.60;;;2.15;;
73841;SDS011;62184;52.006;5.924;2022-09-09T12:34:52;5.88;;;2.00;;
73841;SDS011;62184;52.006;5.924;2022-09-09T12:37:27;5.65;;;2.38;;
73841;SDS011;62184;52.006;5.924;2022-09-09T12:40:02;6.47;;;2.90;;
73841;SDS011;62184;52.006;5.924;2022-09-09T12:42:31;6.43;;;2.08;;
73841;SDS011;62184;52.006;5.924;2022-09-09T12:44:58;6.13;;;2.20;;
73841;SDS011;62184;52.006;5.924;2022-09-09T12:47:30;5.88;;;3.00;;
73841;SDS011;62184;52.006;5.924;2022-09-09T12:50:14;6.53;;;2.00;;
73841;SDS011;62184;52.006;5.924;2022-09-09T12:52:47;6.53;;;2.30;;
73841;SDS011;62184;52.006;5.924;2022-09-09T12:55:17;5.05;;;1.95;;
73841;SDS011;62184;52.006;5.924;2022-09-09T12:57:47;4.90;;;1.80;;
73841;SDS011;62184;52.006;5.924;2022-09-09T13:00:16;6.70;;;2.22;;
73841;SDS011;62184;52.006;5.924;2022-09-09T13:02:47;5.35;;;2.55;;
73841;SDS011;62184;52.006;5.924;2022-09-09T13:05:17;7.70;;;2.40;;
73841;SDS011;62184;52.006;5.924;2022-09-09T13:07:49;5.43;;;2.22;;
73841;SDS011;62184;52.006;5.924;2022-09-09T13:10:20;5.43;;;2.38;;
73841;SDS011;62184;52.006;5.924;2022-09-09T13:12:52;6.75;;;2.40;;
73841;SDS011;62184;52.006;5.924;2022-09-09T13:15:20;8.43;;;2.75;;
73841;SDS011;62184;52.006;5.924;2022-09-09T13:17:50;4.97;;;2.40;;
73841;SDS011;62184;52.006;5.924;2022-09-09T13:20:20;6.93;;;2.85;;
73841;SDS011;62184;52.006;5.924;2022-09-09T13:22:52;5.45;;;2.80;;
73841;SDS011;62184;52.006;5.924;2022-09-09T13:25:22;6.65;;;2.95;;
73841;SDS011;62184;52.006;5.924;2022-09-09T13:27:56;7.63;;;2.65;;
73841;SDS011;62184;52.006;5.924;2022-09-09T13:30:27;6.20;;;2.28;;
73841;SDS011;62184;52.006;5.924;2022-09-09T13:33:03;5.63;;;2.50;;
73841;SDS011;62184;52.006;5.924;2022-09-09T13:35:46;8.40;;;2.50;;
73841;SDS011;62184;52.006;5.924;2022-09-09T13:38:19;6.60;;;2.60;;
73841;SDS011;62184;52.006;5.924;2022-09-09T13:40:52;6.35;;;2.63;;
73841;SDS011;62184;52.006;5.924;2022-09-09T13:43:22;6.10;;;3.05;;
73841;SDS011;62184;52.006;5.924;2022-09-09T13:45:55;7.22;;;2.45;;
73841;SDS011;62184;52.006;5.924;2022-09-09T13:48:24;5.22;;;2.40;;
73841;SDS011;62184;52.006;5.924;2022-09-09T13:50:58;5.00;;;2.50;;
73841;SDS011;62184;52.006;5.924;2022-09-09T13:53:31;6.93;;;2.53;;
73841;SDS011;62184;52.006;5.924;2022-09-09T13:55:57;6.43;;;2.78;;
73841;SDS011;62184;52.006;5.924;2022-09-09T13:58:25;6.50;;;2.55;;
73841;SDS011;62184;52.006;5.924;2022-09-09T14:00:51;7.47;;;2.25;;
73841;SDS011;62184;52.006;5.924;2022-09-09T14:03:19;6.03;;;2.67;;
73841;SDS011;62184;52.006;5.924;2022-09-09T14:05:46;5.85;;;2.30;;
73841;SDS011;62184;52.006;5.924;2022-09-09T14:08:15;6.30;;;2.40;;
73841;SDS011;62184;52.006;5.924;2022-09-09T14:10:50;7.05;;;2.75;;
73841;SDS011;62184;52.006;5.924;2022-09-09T14:13:17;6.50;;;2.55;;
73841;SDS011;62184;52.006;5.924;2022-09-09T14:15:44;7.50;;;2.30;;
73841;SDS011;62184;52.006;5.924;2022-09-09T14:18:11;5.28;;;2.10;;
73841;SDS011;62184;52.006;5.924;2022-09-09T14:20:38;5.55;;;2.03;;
73841;SDS011;62184;52.006;5.924;2022-09-09T14:23:04;5.57;;;1.80;;
73841;SDS011;62184;52.006;5.924;2022-09-09T14:25:31;4.82;;;1.80;;
73841;SDS011;62184;52.006;5.924;2022-09-09T14:28:00;6.00;;;2.10;;
73841;SDS011;62184;52.006;5.924;2022-09-09T14:30:27;6.68;;;2.08;;
73841;SDS011;62184;52.006;5.924;2022-09-09T14:32:53;5.38;;;2.53;;
73841;SDS011;62184;52.006;5.924;2022-09-09T14:35:20;5.43;;;1.88;;
73841;SDS011;62184;52.006;5.924;2022-09-09T14:37:46;5.88;;;2.13;;
73841;SDS011;62184;52.006;5.924;2022-09-09T14:40:12;6.28;;;2.75;;
73841;SDS011;62184;52.006;5.924;2022-09-09T14:42:39;6.03;;;1.85;;
73841;SDS011;62184;52.006;5.924;2022-09-09T14:45:09;8.85;;;2.22;;
73841;SDS011;62184;52.006;5.924;2022-09-09T14:47:36;7.95;;;2.20;;
73841;SDS011;62184;52.006;5.924;2022-09-09T14:50:03;5.88;;;1.83;;
73841;SDS011;62184;52.006;5.924;2022-09-09T14:52:31;6.18;;;1.92;;
73841;SDS011;62184;52.006;5.924;2022-09-09T14:54:57;7.20;;;2.25;;
73841;SDS011;62184;52.006;5.924;2022-09-09T14:57:23;7.20;;;2.00;;
73841;SDS011;62184;52.006;5.924;2022-09-09T14:59:50;7.50;;;2.13;;
73841;SDS011;62184;52.006;5.924;2022-09-09T15:02:19;5.03;;;2.00;;
73841;SDS011;62184;52.006;5.924;2022-09-09T15:04:45;5.53;;;1.80;;
73841;SDS011;62184;52.006;5.924;2022-09-09T15:07:11;5.25;;;1.95;;
73841;SDS011;62184;52.006;5.924;2022-09-09T15:09:38;6.15;;;1.98;;
73841;SDS011;62184;52.006;5.924;2022-09-09T15:12:04;5.50;;;1.90;;
73841;SDS011;62184;52.006;5.924;2022-09-09T15:14:31;7.80;;;1.90;;
73841;SDS011;62184;52.006;5.924;2022-09-09T15:16:57;7.07;;;2.33;;
73841;SDS011;62184;52.006;5.924;2022-09-09T15:19:26;6.93;;;2.15;;
73841;SDS011;62184;52.006;5.924;2022-09-09T15:21:53;6.03;;;2.60;;
73841;SDS011;62184;52.006;5.924;2022-09-09T15:24:19;6.40;;;2.05;;